Mauckport, Indiana
Current Conditions -  °F | °C
As of 3:58 AM on Wednesday 22 Oct 2014 (Local Time) from KFTK Reporting Station
Few Clouds Few Clouds  
Wind Chill: 41°   Ceiling: Unl
Heat Index: 45°   Visibility: 8mi
Dew Point: 41°   Wind: 7mph
Humidity: 85%   Direction: 20°NNE
Pressure: 30.18"   Gusts: NA
Location:  38.03°N, 86.2°W
Report Text: KFTK 220758Z AUTO 02006KT 8SM R18/5500FT FEW035 07/05 A3018 RMK AO2 SLP223 T00710048
Loading
Personal Weather Stations






























Interactive Weather Map
Tropical Storm Tracking
New forecast layout! Learn more

10-Day Weather Forecast

Advertisements
Track Severe Weather on mobile